TimeCDT,TemperatureF,Dew PointF,Humidity,Sea Level PressureIn,VisibilityMPH,Wind Direction,Wind SpeedMPH,Gust SpeedMPH,PrecipitationIn,Events,Conditions,WindDirDegrees,DateUTC
12:15 AM,46.6,35.8,66,30.31,10.0,SE,3.5,-,N/A,,Clear,130,2013-05-26 05:15:00
12:35 AM,46.0,35.6,67,30.31,10.0,Calm,Calm,-,N/A,,Clear,0,2013-05-26 05:35:00
12:55 AM,44.6,35.8,71,30.32,10.0,Calm,Calm,-,N/A,,Clear,0,2013-05-26 05:55:00
1:15 AM,43.3,35.6,74,30.32,10.0,Calm,Calm,-,N/A,,Clear,0,2013-05-26 06:15:00
1:35 AM,43.3,35.4,74,30.31,10.0,Calm,Calm,-,N/A,,Clear,0,2013-05-26 06:35:00
1:55 AM,41.7,35.1,77,30.31,10.0,Calm,Calm,-,N/A,,Clear,0,2013-05-26 06:55:00
2:15 AM,41.2,34.9,78,30.30,10.0,Calm,Calm,-,N/A,,Clear,0,2013-05-26 07:15:00
2:35 AM,38.5,34.2,84,30.30,10.0,Calm,Calm,-,N/A,,Clear,0,2013-05-26 07:35:00
2:55 AM,36.9,33.3,87,30.31,10.0,Calm,Calm,-,N/A,,Clear,0,2013-05-26 07:55:00
3:15 AM,36.0,33.3,90,30.31,10.0,Calm,Calm,-,N/A,,Clear,0,2013-05-26 08:15:00
3:35 AM,34.7,32.4,91,30.31,10.0,Calm,Calm,-,N/A,,Clear,0,2013-05-26 08:35:00
3:55 AM,34.9,32.7,92,30.30,10.0,Calm,Calm,-,N/A,,Clear,0,2013-05-26 08:55:00
4:15 AM,33.3,32.0,95,30.29,10.0,Calm,Calm,-,N/A,,Clear,0,2013-05-26 09:15:00
4:35 AM,34.3,32.4,92,30.31,10.0,Calm,Calm,-,N/A,,Clear,0,2013-05-26 09:35:00
4:55 AM,32.0,31.1,96,30.31,10.0,Calm,Calm,-,N/A,,Clear,0,2013-05-26 09:55:00
5:15 AM,32.0,30.6,94,30.31,10.0,Calm,Calm,-,N/A,,Clear,0,2013-05-26 10:15:00
5:35 AM,32.2,31.3,96,30.32,10.0,Calm,Calm,-,N/A,,Clear,0,2013-05-26 10:35:00
5:55 AM,32.9,31.8,96,30.31,10.0,East,3.5,-,N/A,,Clear,90,2013-05-26 10:55:00
6:15 AM,35.1,33.4,94,30.33,10.0,Calm,Calm,-,N/A,,Clear,0,2013-05-26 11:15:00
6:35 AM,37.9,36.3,94,30.33,10.0,Calm,Calm,-,N/A,,Clear,0,2013-05-26 11:35:00
6:55 AM,41.5,39.7,93,30.33,10.0,Calm,Calm,-,N/A,,Clear,0,2013-05-26 11:55:00
7:15 AM,44.1,41.5,91,30.32,10.0,Calm,Calm,-,N/A,,Clear,0,2013-05-26 12:15:00
7:35 AM,49.6,36.7,61,30.33,10.0,Calm,Calm,-,N/A,,Clear,0,2013-05-26 12:35:00
7:55 AM,51.8,33.3,49,30.33,10.0,ESE,4.6,-,N/A,,Clear,110,2013-05-26 12:55:00
3:15 PM,65.5,30.7,27,30.24,10.0,ESE,4.6,-,N/A,,Clear,120,2013-05-26 20:15:00
6:15 PM,63.3,32.7,32,30.18,10.0,SE,4.6,-,N/A,,Clear,140,2013-05-26 23:15:00
6:55 PM,62.8,32.7,32,30.19,10.0,SE,5.8,-,N/A,,Clear,130,2013-05-26 23:55:00
9:15 PM,55.4,38.3,53,30.21,10.0,Calm,Calm,-,N/A,,Overcast,0,2013-05-27 02:15:00
9:55 PM,52.3,39.4,61,30.20,10.0,ESE,4.6,-,N/A,,Clear,110,2013-05-27 02:55:00
10:55 PM,50.9,39.6,65,30.19,10.0,ESE,3.5,-,N/A,,Clear,110,2013-05-27 03:55:00
11:15 PM,50.4,39.4,66,30.21,10.0,ESE,3.5,-,N/A,,Clear,120,2013-05-27 04:15:00
11:35 PM,48.6,39.6,71,30.20,10.0,ESE,3.5,-,N/A,,Clear,120,2013-05-27 04:35:00
11:55 PM,48.6,39.2,70,30.20,10.0,ESE,3.5,-,N/A,,Clear,110,2013-05-27 04:55:00